createdAt,value
2023-04-08T00:03:50.410Z,58.25
2023-04-08T00:08:55.512Z,61.03
2023-04-08T00:13:59.270Z,57.25
2023-04-08T00:19:03.054Z,56.50
2023-04-08T00:24:08.316Z,56.00
2023-04-08T00:29:12.048Z,52.05
2023-04-08T00:34:16.401Z,46.28
2023-04-08T00:39:21.557Z,60.65
2023-04-08T00:44:25.375Z,53.95
2023-04-08T00:49:29.213Z,61.35
2023-04-08T00:54:34.381Z,61.80
2023-04-08T00:59:38.709Z,52.62
2023-04-08T01:04:53.920Z,65.12
2023-04-08T01:10:03.975Z,56.53
2023-04-08T01:15:09.904Z,58.15
2023-04-08T01:20:16.673Z,66.20
2023-04-08T01:25:24.762Z,57.95
2023-04-08T01:30:31.503Z,65.90
2023-04-08T01:35:36.646Z,66.97
2023-04-08T01:40:42.124Z,55.95
2023-04-08T01:45:49.110Z,57.30
2023-04-08T01:50:54.059Z,55.35
2023-04-08T01:56:02.706Z,69.35
2023-04-08T02:01:12.461Z,67.97
2023-04-08T02:06:16.391Z,61.20
2023-04-08T02:11:21.288Z,56.97
2023-04-08T02:16:34.900Z,68.50
2023-04-08T02:21:44.212Z,61.67
2023-04-08T02:26:50.545Z,65.78
2023-04-08T02:31:56.600Z,64.05
2023-04-08T02:37:00.569Z,58.30
2023-04-08T02:42:05.627Z,54.97
2023-04-08T02:47:10.741Z,60.15
2023-04-08T02:52:14.505Z,65.80
2023-04-08T02:57:18.537Z,56.70
2023-04-08T03:02:23.662Z,60.10
2023-04-08T03:07:27.493Z,59.40
2023-04-08T03:12:31.762Z,60.58
2023-04-08T03:17:36.787Z,63.65
2023-04-08T03:22:40.507Z,69.62
2023-04-08T03:27:44.175Z,66.05
2023-04-08T03:32:49.453Z,61.42
2023-04-08T03:37:54.552Z,70.90
2023-04-08T03:42:58.324Z,66.62
2023-04-08T03:48:03.401Z,71.32
2023-04-08T03:53:07.133Z,74.20
2023-04-08T03:58:10.875Z,65.60
2023-04-08T04:03:16.154Z,86.07
2023-04-08T04:08:19.957Z,80.22
2023-04-08T04:13:23.644Z,78.43
2023-04-08T04:18:28.730Z,78.18
2023-04-08T04:23:32.557Z,82.00
2023-04-08T04:28:36.279Z,81.85
2023-04-08T04:33:41.323Z,84.37
2023-04-08T04:38:45.481Z,73.57
2023-04-08T04:43:49.181Z,80.45
2023-04-08T04:48:54.228Z,79.40
2023-04-08T04:53:57.972Z,78.35
2023-04-08T04:59:01.648Z,84.35
2023-04-08T05:04:06.754Z,92.35
2023-04-08T05:09:10.465Z,78.20
2023-04-08T05:14:14.268Z,96.93
2023-04-08T05:19:19.332Z,86.72
2023-04-08T05:24:23.075Z,91.30
2023-04-08T05:29:27.911Z,93.50
2023-04-08T05:34:33.895Z,73.22
2023-04-08T05:39:37.732Z,76.53
2023-04-08T05:44:43.903Z,74.22
2023-04-08T05:49:50.216Z,78.12
2023-04-08T05:54:55.002Z,68.25
2023-04-08T05:59:58.920Z,56.47
2023-04-08T06:05:04.819Z,63.53
2023-04-08T06:10:09.917Z,55.50
2023-04-08T06:15:13.824Z,44.03
2023-04-08T06:20:18.972Z,43.03
2023-04-08T06:25:23.083Z,45.42
2023-04-08T06:30:26.834Z,42.38
2023-04-08T06:35:32.599Z,45.50
2023-04-08T06:40:36.524Z,41.78
2023-04-08T06:45:40.331Z,30.10
2023-04-08T06:50:45.547Z,31.48
2023-04-08T06:55:49.269Z,31.45
2023-04-08T07:00:55.356Z,36.17
2023-04-08T07:06:00.425Z,42.60
2023-04-08T07:11:04.248Z,38.38
2023-04-08T07:16:08.295Z,32.88
2023-04-08T07:21:13.353Z,34.10
2023-04-08T07:26:17.144Z,34.53
2023-04-08T07:31:21.031Z,38.70
2023-04-08T07:36:26.506Z,43.45
2023-04-08T07:41:30.268Z,48.97
2023-04-08T07:46:38.232Z,40.95
2023-04-08T07:51:43.384Z,38.35
2023-04-08T07:56:47.183Z,37.92
2023-04-08T08:01:51.322Z,40.30
2023-04-08T08:06:56.566Z,44.45
2023-04-08T08:12:00.369Z,38.78
2023-04-08T08:17:04.987Z,42.03
2023-04-08T08:22:10.026Z,39.10
2023-04-08T08:27:13.870Z,32.85
2023-04-08T08:32:17.781Z,34.53
2023-04-08T08:37:22.857Z,39.00
2023-04-08T08:42:27.502Z,39.08
2023-04-08T08:47:32.390Z,44.75
2023-04-08T08:52:37.622Z,49.60
2023-04-08T08:57:41.433Z,46.75
2023-04-08T09:02:45.776Z,40.70
2023-04-08T09:07:51.100Z,34.15
2023-04-08T09:12:56.733Z,37.70
2023-04-08T09:18:00.541Z,40.85
2023-04-08T09:23:05.710Z,39.10
2023-04-08T09:28:21.090Z,32.47
2023-04-08T09:33:31.817Z,36.67
2023-04-08T09:38:37.037Z,33.22
2023-04-08T09:43:44.075Z,35.30
2023-04-08T09:48:54.566Z,36.75
2023-04-08T09:54:03.747Z,36.25
2023-04-08T09:59:12.999Z,38.00
2023-04-08T10:04:21.012Z,34.15
2023-04-08T10:09:28.424Z,35.47
2023-04-08T10:14:32.645Z,34.38
2023-04-08T10:19:41.697Z,32.03
2023-04-08T10:25:23.789Z,36.10
2023-04-08T10:30:43.896Z,33.42
2023-04-08T10:35:50.133Z,36.55
2023-04-08T10:40:55.790Z,33.78
2023-04-08T10:45:59.739Z,33.95
2023-04-08T10:51:05.156Z,29.77
2023-04-08T10:56:13.318Z,28.23
2023-04-08T11:01:17.489Z,31.73
2023-04-08T11:06:22.108Z,29.37
2023-04-08T11:11:29.511Z,25.48
2023-04-08T11:16:33.759Z,26.13
2023-04-08T11:21:38.690Z,20.58
2023-04-08T11:26:44.342Z,21.73
2023-04-08T11:31:49.619Z,17.35
2023-04-08T11:36:53.746Z,16.37
2023-04-08T11:41:58.908Z,17.10
2023-04-08T11:47:03.069Z,16.55
2023-04-08T11:52:07.548Z,17.85
2023-04-08T11:57:12.892Z,16.37
2023-04-08T12:02:17.205Z,16.83
2023-04-08T12:07:21.501Z,16.30
2023-04-08T12:12:26.693Z,16.02
2023-04-08T12:17:30.730Z,15.73
2023-04-08T12:22:34.516Z,15.77
2023-04-08T12:27:39.649Z,15.35
2023-04-08T12:32:45.877Z,13.30
2023-04-08T12:37:49.731Z,11.90
2023-04-08T12:42:54.832Z,13.38
2023-04-08T12:47:58.583Z,12.13
2023-04-08T12:53:02.372Z,12.02
2023-04-08T12:58:07.499Z,11.30
2023-04-08T13:03:11.262Z,15.85
2023-04-08T13:08:16.078Z,9.90
2023-04-08T13:13:21.188Z,11.45
2023-04-08T13:18:25.077Z,9.88
2023-04-08T13:23:28.819Z,10.38
2023-04-08T13:28:38.672Z,9.77
2023-04-08T13:33:47.527Z,9.80
2023-04-08T13:38:52.068Z,8.88
2023-04-08T13:43:57.619Z,8.55
2023-04-08T13:49:01.443Z,12.32
2023-04-08T13:54:05.222Z,9.65
2023-04-08T13:59:10.717Z,10.50
2023-04-08T14:04:14.489Z,11.93
2023-04-08T14:09:18.598Z,11.43
2023-04-08T14:14:23.727Z,10.45
2023-04-08T14:19:27.582Z,8.43
2023-04-08T14:24:31.292Z,9.50
2023-04-08T14:29:36.687Z,14.50
2023-04-08T14:34:40.426Z,9.45
2023-04-08T14:39:44.158Z,11.70
2023-04-08T14:44:49.298Z,10.88
2023-04-08T14:49:52.963Z,11.50
2023-04-08T14:54:56.751Z,12.10
2023-04-08T15:00:01.910Z,12.90
2023-04-08T15:05:06.347Z,12.70
2023-04-08T15:10:10.896Z,13.10
2023-04-08T15:15:16.220Z,11.27
2023-04-08T15:20:20.226Z,10.55
2023-04-08T15:25:24.135Z,10.65
2023-04-08T15:30:35.030Z,10.00
2023-04-08T15:35:39.383Z,14.15
2023-04-08T15:40:44.700Z,11.18
2023-04-08T15:45:50.611Z,10.63
2023-04-08T15:50:54.453Z,11.48
2023-04-08T15:55:58.330Z,10.90
2023-04-08T16:01:03.450Z,10.40
2023-04-08T16:06:07.287Z,9.55
2023-04-08T16:11:11.445Z,10.98
2023-04-08T16:16:16.550Z,10.80
2023-04-08T16:21:20.475Z,13.88
2023-04-08T16:26:27.386Z,11.10
2023-04-08T16:31:32.822Z,11.47
2023-04-08T16:36:36.817Z,11.43
2023-04-08T16:41:40.554Z,10.93
2023-04-08T16:46:45.783Z,15.75
2023-04-08T16:51:49.793Z,13.82
2023-04-08T16:56:53.594Z,10.18
2023-04-08T17:01:58.671Z,13.70
2023-04-08T17:07:03.357Z,12.05
2023-04-08T17:12:07.121Z,9.88
2023-04-08T17:17:12.211Z,9.77
2023-04-08T17:22:16.395Z,12.90
2023-04-08T17:27:20.197Z,11.70
2023-04-08T17:32:25.772Z,11.18
2023-04-08T17:37:29.487Z,11.35
2023-04-08T17:42:33.178Z,11.43
2023-04-08T17:47:38.258Z,12.20
2023-04-08T17:52:43.965Z,12.82
2023-04-08T17:57:49.674Z,13.38
2023-04-08T18:02:54.830Z,12.95
2023-04-08T18:07:59.328Z,11.48
2023-04-08T18:18:11.106Z,9.77
2023-04-08T18:23:14.864Z,13.95
2023-04-08T18:28:18.604Z,12.13
2023-04-08T18:33:23.640Z,11.65
2023-04-08T18:38:27.408Z,12.52
2023-04-08T18:43:31.170Z,11.30
2023-04-08T18:48:36.276Z,9.27
2023-04-08T18:53:40.065Z,10.63
2023-04-08T18:58:44.553Z,10.02
2023-04-08T19:03:50.026Z,9.30
2023-04-08T19:08:54.006Z,11.05
2023-04-08T19:13:57.918Z,16.40
2023-04-08T19:19:03.229Z,11.68
2023-04-08T19:24:07.109Z,13.40
2023-04-08T19:29:11.935Z,12.40
2023-04-08T19:34:17.019Z,12.98
2023-04-08T19:39:21.029Z,13.95
2023-04-08T19:44:24.689Z,14.38
2023-04-08T19:49:29.719Z,15.00
2023-04-08T19:54:33.467Z,17.58
2023-04-08T19:59:37.305Z,16.80
2023-04-08T20:04:42.561Z,18.90
2023-04-08T20:09:46.458Z,18.35
2023-04-08T20:14:50.257Z,17.45
2023-04-08T20:19:55.671Z,16.27
2023-04-08T20:25:00.229Z,15.80
2023-04-08T20:30:04.300Z,18.60
2023-04-08T20:35:09.812Z,17.25
2023-04-08T20:40:14.687Z,20.27
2023-04-08T20:45:19.259Z,15.52
2023-04-08T20:50:24.660Z,14.63
2023-04-08T20:55:28.417Z,17.23
2023-04-08T21:00:32.253Z,20.25
2023-04-08T21:05:39.070Z,18.65
2023-04-08T21:10:43.071Z,18.90
2023-04-08T21:15:46.965Z,20.25
2023-04-08T21:20:52.040Z,17.40
2023-04-08T21:25:56.004Z,26.65
2023-04-08T21:31:08.699Z,17.17
2023-04-08T21:36:14.029Z,16.48
2023-04-08T21:41:18.183Z,18.95
2023-04-08T21:46:22.036Z,21.95
2023-04-08T21:51:27.553Z,20.73
2023-04-08T21:56:31.304Z,17.00
2023-04-08T22:01:35.116Z,21.02
2023-04-08T22:06:41.038Z,23.87
2023-04-08T22:11:44.751Z,19.85
2023-04-08T22:16:48.477Z,20.92
2023-04-08T22:21:53.717Z,21.83
2023-04-08T22:26:57.524Z,23.55
2023-04-08T22:32:01.414Z,20.05
2023-04-08T22:37:06.598Z,22.10
2023-04-08T22:42:10.398Z,20.62
2023-04-08T22:47:14.156Z,20.62
2023-04-08T22:52:19.236Z,21.48
2023-04-08T22:57:23.042Z,20.58
2023-04-08T23:02:26.938Z,22.08
2023-04-08T23:07:32.060Z,23.25
2023-04-08T23:12:35.914Z,21.85
2023-04-08T23:17:39.661Z,22.50
2023-04-08T23:22:44.747Z,22.13
2023-04-08T23:27:48.484Z,20.15
2023-04-08T23:32:52.269Z,19.70
2023-04-08T23:37:57.541Z,22.50
2023-04-08T23:43:01.248Z,20.40
2023-04-08T23:48:07.806Z,19.50
2023-04-08T23:58:18.125Z,21.67
